createdAt,value
2018-05-03T00:00:56.799Z,5.30
2018-05-03T00:01:56.914Z,4.90
2018-05-03T00:02:56.863Z,5.00
2018-05-03T00:03:56.896Z,5.30
2018-05-03T00:04:56.927Z,5.30
2018-05-03T00:05:56.961Z,5.10
2018-05-03T00:06:56.992Z,5.10
2018-05-03T00:07:57.026Z,4.50
2018-05-03T00:08:57.058Z,4.70
2018-05-03T00:09:57.090Z,5.20
2018-05-03T00:10:57.122Z,5.30
2018-05-03T00:11:57.155Z,5.30
2018-05-03T00:12:57.188Z,4.60
2018-05-03T00:13:57.220Z,4.60
2018-05-03T00:14:57.253Z,4.90
2018-05-03T00:15:57.285Z,5.30
2018-05-03T00:16:57.320Z,5.10
2018-05-03T00:17:57.348Z,4.60
2018-05-03T00:18:57.382Z,5.00
2018-05-03T00:19:57.415Z,5.10
2018-05-03T00:20:57.446Z,5.10
2018-05-03T00:21:57.479Z,4.90
2018-05-03T00:22:57.513Z,5.10
2018-05-03T00:23:57.543Z,5.00
2018-05-03T00:24:57.574Z,4.90
2018-05-03T00:25:57.607Z,5.20
2018-05-03T00:26:57.640Z,5.30
2018-05-03T00:27:57.674Z,5.00
2018-05-03T00:28:57.703Z,5.20
2018-05-03T00:29:57.737Z,4.90
2018-05-03T00:30:57.769Z,5.00
2018-05-03T00:31:57.802Z,4.80
2018-05-03T00:32:57.834Z,5.00
2018-05-03T00:33:57.866Z,4.90
2018-05-03T00:34:57.899Z,4.80
2018-05-03T00:35:57.933Z,4.90
2018-05-03T00:36:57.963Z,4.70
2018-05-03T00:37:57.995Z,5.10
2018-05-03T00:38:58.028Z,5.10
2018-05-03T00:39:58.067Z,4.50
2018-05-03T00:40:58.091Z,4.70
2018-05-03T00:41:58.124Z,5.10
2018-05-03T00:42:58.156Z,4.80
2018-05-03T00:43:58.187Z,4.70
2018-05-03T00:44:58.221Z,5.30
2018-05-03T00:45:58.252Z,5.40
2018-05-03T00:46:58.285Z,4.90
2018-05-03T00:47:58.320Z,5.50
2018-05-03T00:48:58.431Z,5.30
2018-05-03T00:49:58.381Z,5.50
2018-05-03T00:50:58.415Z,5.30
2018-05-03T00:51:58.446Z,5.20
2018-05-03T00:52:58.477Z,5.00
2018-05-03T00:53:58.510Z,4.50
2018-05-03T00:54:58.543Z,5.10
2018-05-03T00:55:58.575Z,5.70
2018-05-03T00:56:58.606Z,4.90
2018-05-03T00:57:58.638Z,5.40
2018-05-03T00:58:58.671Z,5.70
2018-05-03T00:59:58.704Z,4.80
2018-05-03T01:00:58.739Z,5.10
2018-05-03T01:01:58.768Z,5.20
2018-05-03T01:02:58.800Z,5.30
2018-05-03T01:03:58.834Z,5.60
2018-05-03T01:04:58.864Z,5.20
2018-05-03T01:05:58.896Z,5.00
2018-05-03T01:06:58.929Z,4.90
2018-05-03T01:07:58.961Z,5.00
2018-05-03T01:08:58.994Z,5.00
2018-05-03T01:09:59.024Z,5.00
2018-05-03T01:10:59.058Z,5.20
2018-05-03T01:11:59.091Z,5.20
2018-05-03T01:12:59.120Z,4.70
2018-05-03T01:13:59.153Z,4.60
2018-05-03T01:14:59.186Z,5.10
2018-05-03T01:15:59.219Z,5.30
2018-05-03T01:16:59.250Z,5.70
2018-05-03T01:17:59.283Z,5.70
2018-05-03T01:18:59.314Z,5.70
2018-05-03T01:19:59.347Z,5.10
2018-05-03T01:20:59.385Z,5.10
2018-05-03T01:21:59.416Z,5.10
2018-05-03T01:22:59.442Z,5.50
2018-05-03T01:23:59.474Z,5.30
2018-05-03T01:24:59.507Z,5.10
2018-05-03T01:25:59.538Z,5.00
2018-05-03T01:26:59.572Z,5.50
2018-05-03T01:27:59.604Z,5.40
2018-05-03T01:28:59.635Z,5.40
2018-05-03T01:29:59.668Z,5.00
2018-05-03T01:30:59.700Z,6.20
2018-05-03T01:31:59.731Z,5.70
2018-05-03T01:32:59.763Z,5.70
2018-05-03T01:33:59.794Z,5.70
2018-05-03T01:34:59.829Z,6.20
2018-05-03T01:35:59.859Z,6.00
2018-05-03T01:36:59.891Z,5.70
2018-05-03T01:37:59.923Z,6.10
2018-05-03T01:38:59.958Z,5.90
2018-05-03T01:39:59.989Z,6.10
2018-05-03T01:41:00.024Z,6.10
2018-05-03T01:42:00.052Z,5.70
2018-05-03T01:43:00.089Z,5.50
2018-05-03T01:44:00.115Z,6.00
2018-05-03T01:45:00.148Z,6.00
2018-05-03T01:46:00.181Z,6.10
2018-05-03T01:47:00.213Z,6.30
2018-05-03T01:48:00.246Z,5.30
2018-05-03T01:49:00.276Z,5.70
2018-05-03T01:50:00.308Z,6.00
2018-05-03T01:51:00.341Z,5.80
2018-05-03T01:52:00.374Z,6.80
2018-05-03T01:53:00.405Z,6.80
2018-05-03T01:54:00.438Z,6.50
2018-05-03T01:55:00.472Z,6.00
2018-05-03T01:56:00.503Z,7.00
2018-05-03T01:57:00.532Z,6.50
2018-05-03T01:58:00.566Z,5.90
2018-05-03T01:59:00.602Z,5.70
2018-05-03T02:00:00.634Z,5.90
2018-05-03T02:01:00.661Z,6.90
2018-05-03T02:02:00.694Z,5.90
2018-05-03T02:03:00.727Z,5.70
2018-05-03T02:04:00.759Z,5.80
2018-05-03T02:05:00.790Z,6.20
2018-05-03T02:06:00.823Z,6.50
2018-05-03T02:07:00.855Z,6.10
2018-05-03T02:08:00.886Z,6.30
2018-05-03T02:09:00.919Z,6.70
2018-05-03T02:10:00.951Z,6.70
2018-05-03T02:11:00.982Z,6.50
2018-05-03T02:12:01.017Z,6.40
2018-05-03T02:13:01.047Z,6.70
2018-05-03T02:14:01.078Z,6.90
2018-05-03T02:15:01.112Z,6.40
2018-05-03T02:16:01.144Z,6.50
2018-05-03T02:17:01.178Z,6.90
2018-05-03T02:18:01.210Z,6.70
2018-05-03T02:19:01.240Z,6.30
2018-05-03T02:20:01.273Z,6.70
2018-05-03T02:21:01.303Z,6.40
2018-05-03T02:22:01.336Z,6.90
2018-05-03T02:23:01.369Z,6.80
2018-05-03T02:24:01.400Z,6.20
2018-05-03T02:25:01.436Z,6.40
2018-05-03T02:26:01.465Z,7.00
2018-05-03T02:27:01.497Z,6.60
2018-05-03T02:28:01.529Z,6.10
2018-05-03T02:29:01.567Z,6.90
2018-05-03T02:30:01.597Z,6.70
2018-05-03T02:31:01.626Z,6.80
2018-05-03T02:32:01.659Z,6.50
2018-05-03T02:33:01.698Z,7.10
2018-05-03T02:34:01.727Z,6.70
2018-05-03T02:35:01.754Z,7.00
2018-05-03T02:36:01.793Z,6.90
2018-05-03T02:37:01.819Z,7.20
2018-05-03T02:38:01.850Z,6.20
2018-05-03T02:39:01.884Z,6.80
2018-05-03T02:40:01.918Z,6.80
2018-05-03T02:41:01.947Z,7.00
2018-05-03T02:42:01.979Z,6.90
2018-05-03T02:43:02.013Z,6.40
2018-05-03T02:44:02.044Z,6.70
2018-05-03T02:45:02.075Z,6.70
2018-05-03T02:46:02.109Z,6.90
2018-05-03T02:47:02.141Z,7.20
2018-05-03T02:48:02.173Z,6.70
2018-05-03T02:49:02.204Z,7.40
2018-05-03T02:50:02.239Z,7.00
2018-05-03T02:51:02.272Z,7.80
2018-05-03T02:52:02.302Z,6.80
2018-05-03T02:53:02.333Z,7.50
2018-05-03T02:54:02.364Z,7.30
2018-05-03T02:55:02.397Z,7.20
2018-05-03T02:56:02.441Z,6.80
2018-05-03T02:57:02.461Z,7.40
2018-05-03T02:58:02.493Z,7.30
2018-05-03T02:59:02.526Z,6.30
2018-05-03T03:00:02.561Z,6.60
2018-05-03T03:01:02.589Z,6.20
2018-05-03T03:02:02.627Z,6.60
2018-05-03T03:03:02.654Z,7.50
2018-05-03T03:04:02.691Z,6.50
2018-05-03T03:05:02.719Z,6.90
2018-05-03T03:06:02.749Z,5.90
2018-05-03T03:07:02.797Z,7.50
2018-05-03T03:08:02.813Z,7.00
2018-05-03T03:09:02.845Z,6.50
2018-05-03T03:10:02.883Z,7.50
2018-05-03T03:11:02.918Z,7.20
2018-05-03T03:12:02.941Z,7.10
2018-05-03T03:13:02.977Z,6.90
2018-05-03T03:14:03.004Z,7.40
2018-05-03T03:15:03.036Z,7.00
2018-05-03T03:16:03.070Z,6.70
2018-05-03T03:17:03.100Z,6.90
2018-05-03T03:18:03.133Z,6.50
2018-05-03T03:19:03.165Z,7.10
2018-05-03T03:20:03.197Z,7.20
2018-05-03T03:21:03.228Z,7.50
2018-05-03T03:22:03.317Z,7.30
2018-05-03T03:23:03.297Z,7.10
2018-05-03T03:24:03.324Z,7.20
2018-05-03T03:25:03.357Z,6.90
2018-05-03T03:26:03.390Z,6.70
2018-05-03T03:27:03.419Z,7.00
2018-05-03T03:28:03.452Z,7.10
2018-05-03T03:29:03.483Z,7.40
2018-05-03T03:30:03.523Z,6.40
2018-05-03T03:31:03.548Z,7.20
2018-05-03T03:32:03.580Z,7.30
2018-05-03T03:33:03.611Z,7.10
2018-05-03T03:34:03.645Z,7.10
2018-05-03T03:35:03.676Z,6.80
2018-05-03T03:36:03.707Z,7.30
2018-05-03T03:37:03.738Z,6.90
2018-05-03T03:38:03.771Z,7.00
2018-05-03T03:39:03.802Z,6.90
2018-05-03T03:40:03.834Z,7.10
2018-05-03T03:41:03.867Z,6.60
2018-05-03T03:42:03.898Z,6.80
2018-05-03T03:43:03.931Z,6.90
2018-05-03T03:44:03.963Z,6.40
2018-05-03T03:45:03.994Z,6.20
2018-05-03T03:46:04.026Z,7.30
2018-05-03T03:47:04.057Z,7.00
2018-05-03T03:48:04.090Z,7.90
2018-05-03T03:49:04.121Z,7.00
2018-05-03T03:50:04.154Z,7.50
2018-05-03T03:51:04.190Z,6.40
2018-05-03T03:52:04.217Z,6.50
2018-05-03T03:53:04.248Z,6.20
2018-05-03T03:54:04.281Z,6.60
2018-05-03T03:55:04.312Z,6.60
2018-05-03T03:56:04.346Z,6.60
2018-05-03T03:57:04.376Z,6.10
2018-05-03T03:58:04.409Z,7.20
2018-05-03T03:59:04.449Z,7.10
2018-05-03T04:00:04.474Z,6.90
2018-05-03T04:01:04.504Z,7.50
2018-05-03T04:02:04.536Z,6.90
2018-05-03T04:03:04.572Z,7.20
2018-05-03T04:04:04.604Z,6.60
2018-05-03T04:05:04.632Z,6.70
2018-05-03T04:06:04.663Z,6.50
2018-05-03T04:07:04.696Z,7.50
2018-05-03T04:08:04.728Z,7.10
2018-05-03T04:09:04.763Z,6.50
2018-05-03T04:10:04.792Z,6.70
2018-05-03T04:11:04.823Z,7.50
2018-05-03T04:12:04.854Z,6.70
2018-05-03T04:13:04.889Z,7.60
2018-05-03T04:14:04.917Z,7.20
2018-05-03T04:15:04.949Z,7.00
2018-05-03T04:16:04.983Z,6.90
2018-05-03T04:17:05.014Z,6.80
2018-05-03T04:18:05.045Z,6.80
2018-05-03T04:19:05.078Z,6.90
2018-05-03T04:20:05.112Z,6.90
2018-05-03T04:21:05.141Z,7.10
2018-05-03T04:22:05.185Z,7.50
2018-05-03T04:23:05.206Z,7.10
2018-05-03T04:24:05.240Z,7.30
2018-05-03T04:25:05.269Z,7.20
2018-05-03T04:26:05.300Z,7.20
2018-05-03T04:27:05.334Z,7.70
2018-05-03T04:28:05.365Z,7.80
2018-05-03T04:29:05.397Z,7.90
2018-05-03T04:30:05.429Z,7.60
2018-05-03T04:31:05.461Z,8.00
2018-05-03T04:32:05.492Z,7.60
2018-05-03T04:33:05.544Z,8.00
2018-05-03T04:34:05.556Z,7.40
2018-05-03T04:35:05.589Z,7.10
2018-05-03T04:36:05.619Z,7.10
2018-05-03T04:37:05.651Z,7.50
2018-05-03T04:38:05.684Z,8.20
2018-05-03T04:39:05.714Z,7.90
2018-05-03T04:40:05.747Z,8.40
2018-05-03T04:41:05.779Z,7.60
2018-05-03T04:42:05.811Z,7.60
2018-05-03T04:43:05.843Z,7.70
2018-05-03T04:44:05.876Z,7.40
2018-05-03T04:45:05.907Z,8.00
2018-05-03T04:46:05.939Z,8.10
2018-05-03T04:47:05.972Z,8.30
2018-05-03T04:48:06.005Z,8.20
2018-05-03T04:49:06.044Z,7.90
2018-05-03T04:50:06.066Z,7.40
2018-05-03T04:51:06.099Z,7.10
2018-05-03T04:52:06.132Z,8.10
2018-05-03T04:53:06.162Z,7.90
2018-05-03T04:54:06.283Z,8.10
2018-05-03T04:55:06.227Z,7.70
2018-05-03T04:56:06.260Z,7.20
2018-05-03T04:57:06.291Z,7.20
2018-05-03T04:58:06.323Z,8.20
2018-05-03T04:59:06.356Z,7.20
2018-05-03T05:00:06.387Z,7.60
2018-05-03T05:01:06.418Z,7.60
2018-05-03T05:02:06.452Z,7.50
2018-05-03T05:03:06.483Z,8.00
2018-05-03T05:04:06.517Z,7.70
2018-05-03T05:05:06.548Z,8.10
2018-05-03T05:06:06.580Z,7.80
2018-05-03T05:07:06.613Z,7.80
2018-05-03T05:08:06.646Z,7.10
2018-05-03T05:09:06.676Z,7.30
2018-05-03T05:10:06.709Z,7.80
2018-05-03T05:11:06.742Z,8.10
2018-05-03T05:12:06.774Z,8.00
2018-05-03T05:13:06.806Z,8.00
2018-05-03T05:14:06.837Z,8.00
2018-05-03T05:15:06.870Z,8.20
2018-05-03T05:16:06.903Z,7.40
2018-05-03T05:17:06.935Z,8.30
2018-05-03T05:18:06.969Z,7.80
2018-05-03T05:19:07.000Z,8.50
2018-05-03T05:20:07.033Z,7.60
2018-05-03T05:21:07.143Z,7.20
2018-05-03T05:22:07.097Z,8.20
2018-05-03T05:23:07.130Z,8.20
2018-05-03T05:24:07.199Z,8.90
2018-05-03T05:25:07.194Z,8.20
2018-05-03T05:26:07.226Z,8.20
2018-05-03T05:27:07.260Z,7.30
2018-05-03T05:28:07.291Z,7.60
2018-05-03T05:29:07.324Z,8.00
2018-05-03T05:30:07.356Z,7.70
2018-05-03T05:31:07.390Z,6.90
2018-05-03T05:32:07.422Z,7.50
2018-05-03T05:33:07.454Z,8.40
2018-05-03T05:34:07.486Z,7.30
2018-05-03T05:35:07.519Z,7.70
2018-05-03T05:36:07.552Z,8.10
2018-05-03T05:37:07.584Z,8.10
2018-05-03T05:38:07.621Z,8.30
2018-05-03T05:39:07.649Z,8.60
2018-05-03T05:40:07.682Z,8.40
2018-05-03T05:41:07.713Z,8.30
2018-05-03T05:42:07.748Z,8.30
2018-05-03T05:43:07.779Z,8.20
2018-05-03T05:44:07.812Z,8.10
2018-05-03T05:45:07.842Z,8.30
2018-05-03T05:46:07.876Z,7.50
2018-05-03T05:47:07.908Z,6.10
2018-05-03T05:48:07.942Z,7.30
2018-05-03T05:49:07.973Z,8.00
2018-05-03T05:50:08.006Z,7.40
2018-05-03T05:51:08.068Z,7.30
2018-05-03T05:52:08.072Z,7.70
2018-05-03T05:53:08.104Z,8.00
2018-05-03T05:54:08.137Z,8.40
2018-05-03T05:55:08.170Z,8.20
2018-05-03T05:56:08.203Z,6.90
2018-05-03T05:57:08.236Z,7.30
2018-05-03T05:58:08.269Z,8.30
2018-05-03T05:59:08.302Z,7.30
2018-05-03T06:00:08.338Z,6.90
2018-05-03T06:01:08.366Z,7.40
2018-05-03T06:02:08.400Z,7.80
2018-05-03T06:03:08.433Z,6.80
2018-05-03T06:04:08.514Z,7.20
2018-05-03T06:05:08.520Z,7.50
2018-05-03T06:06:08.532Z,8.60
2018-05-03T06:07:08.565Z,8.00
2018-05-03T06:08:08.598Z,8.30
2018-05-03T06:09:08.631Z,8.40
2018-05-03T06:10:08.666Z,7.80
2018-05-03T06:11:08.698Z,8.50
2018-05-03T06:12:08.730Z,8.50
2018-05-03T06:13:08.761Z,8.10
2018-05-03T06:14:08.795Z,9.00
2018-05-03T06:15:08.830Z,8.90
2018-05-03T06:16:08.864Z,8.40
2018-05-03T06:17:08.925Z,9.00
2018-05-03T06:18:08.930Z,9.90
2018-05-03T06:19:08.963Z,12.00
2018-05-03T06:20:09.002Z,11.00
2018-05-03T06:21:09.030Z,10.40
2018-05-03T06:22:09.062Z,10.50
2018-05-03T06:23:09.096Z,11.10
2018-05-03T06:24:09.130Z,10.00
2018-05-03T06:25:09.168Z,10.20
2018-05-03T06:26:09.196Z,11.20
2018-05-03T06:27:09.230Z,10.80
2018-05-03T06:28:09.264Z,10.30
2018-05-03T06:29:09.298Z,10.30
2018-05-03T06:30:09.329Z,10.10
2018-05-03T06:31:09.367Z,8.60
2018-05-03T06:32:09.400Z,9.00
2018-05-03T06:33:09.432Z,8.90
2018-05-03T06:34:09.465Z,9.10
2018-05-03T06:35:09.499Z,9.60
2018-05-03T06:36:09.534Z,8.70
2018-05-03T06:37:09.566Z,9.60
2018-05-03T06:38:09.609Z,9.10
2018-05-03T06:39:09.643Z,9.60
2018-05-03T06:40:09.667Z,8.90
2018-05-03T06:41:09.702Z,9.10
2018-05-03T06:42:09.737Z,8.90
2018-05-03T06:43:09.771Z,8.90
2018-05-03T06:44:09.804Z,9.30
2018-05-03T06:45:09.837Z,9.60
2018-05-03T06:46:09.873Z,8.90
2018-05-03T06:47:09.906Z,8.80
2018-05-03T06:48:09.942Z,9.00
2018-05-03T06:49:09.975Z,9.30
2018-05-03T06:50:10.009Z,9.10
2018-05-03T06:51:10.044Z,8.40
2018-05-03T06:52:10.078Z,9.30
2018-05-03T06:53:10.113Z,9.40
2018-05-03T06:54:10.145Z,9.20
2018-05-03T06:55:10.183Z,8.50
2018-05-03T06:56:10.214Z,8.70
2018-05-03T06:57:10.248Z,8.50
2018-05-03T06:58:10.282Z,8.80
2018-05-03T06:59:10.316Z,9.40
2018-05-03T07:00:10.351Z,9.10
2018-05-03T07:01:10.384Z,8.90
2018-05-03T07:02:10.432Z,8.80
2018-05-03T07:03:10.454Z,9.20
2018-05-03T07:04:10.523Z,8.80
2018-05-03T07:05:10.521Z,8.90
2018-05-03T07:06:10.556Z,8.80
2018-05-03T07:07:10.591Z,8.00
2018-05-03T07:08:10.630Z,8.50
2018-05-03T07:09:10.658Z,8.30
2018-05-03T07:10:10.693Z,8.90
2018-05-03T07:11:10.729Z,8.60
2018-05-03T07:12:10.762Z,9.00
2018-05-03T07:13:10.796Z,8.40
2018-05-03T07:14:10.830Z,7.70
2018-05-03T07:15:10.869Z,8.50
2018-05-03T07:16:10.908Z,8.70
2018-05-03T07:17:10.934Z,8.50
2018-05-03T07:18:10.972Z,8.30
2018-05-03T07:19:11.006Z,8.60
2018-05-03T07:20:11.037Z,8.10
2018-05-03T07:21:11.072Z,8.00
2018-05-03T07:22:11.105Z,8.90
2018-05-03T07:23:11.141Z,9.10
2018-05-03T07:24:11.176Z,8.70
2018-05-03T07:25:11.210Z,9.30
2018-05-03T07:26:11.244Z,9.20
2018-05-03T07:27:11.279Z,10.60
2018-05-03T07:28:11.326Z,10.00
2018-05-03T07:29:11.352Z,9.60
2018-05-03T07:30:11.384Z,8.80
2018-05-03T07:31:11.419Z,10.50
2018-05-03T07:32:11.457Z,9.90
2018-05-03T07:33:11.488Z,10.60
2018-05-03T07:34:11.524Z,9.50
2018-05-03T07:35:11.559Z,10.10
2018-05-03T07:36:11.594Z,9.70
2018-05-03T07:37:11.627Z,10.40
2018-05-03T07:38:11.661Z,10.40
2018-05-03T07:39:11.702Z,11.20
2018-05-03T07:40:11.732Z,10.70
2018-05-03T07:41:11.767Z,10.90
2018-05-03T07:42:11.802Z,11.30
2018-05-03T07:43:11.837Z,11.40
2018-05-03T07:44:11.871Z,11.00
2018-05-03T07:45:11.906Z,10.80
2018-05-03T07:46:11.940Z,11.50
2018-05-03T07:47:11.977Z,11.30
2018-05-03T07:48:12.012Z,10.70
2018-05-03T07:49:12.044Z,10.70
2018-05-03T07:50:12.081Z,10.70
2018-05-03T07:52:12.150Z,10.90
2018-05-03T07:53:12.186Z,11.20
2018-05-03T07:54:12.219Z,11.50
2018-05-03T07:55:12.254Z,12.20
2018-05-03T07:56:12.290Z,10.80
2018-05-03T07:57:12.324Z,11.10
2018-05-03T07:58:12.483Z,11.20
2018-05-03T07:59:12.395Z,10.90
2018-05-03T08:00:12.431Z,10.30
2018-05-03T08:01:12.465Z,11.60
2018-05-03T08:02:12.638Z,10.40
2018-05-03T08:03:12.535Z,10.90
2018-05-03T08:04:12.727Z,10.80
2018-05-03T08:05:12.708Z,9.80
2018-05-03T08:06:12.677Z,11.00
2018-05-03T08:07:12.677Z,10.50
2018-05-03T08:08:12.712Z,11.10
2018-05-03T08:09:12.746Z,10.70
2018-05-03T08:10:12.782Z,10.40
2018-05-03T08:11:12.816Z,10.20
2018-05-03T08:12:12.853Z,10.40
2018-05-03T08:13:12.886Z,10.10
2018-05-03T08:14:12.938Z,9.70
2018-05-03T08:15:12.959Z,9.40
2018-05-03T08:16:12.994Z,10.10
2018-05-03T08:17:13.031Z,10.30
2018-05-03T08:18:13.064Z,10.70
2018-05-03T08:19:13.100Z,10.50
2018-05-03T08:20:13.135Z,10.40
2018-05-03T08:21:13.169Z,10.80
2018-05-03T08:22:13.209Z,9.80
2018-05-03T08:23:13.240Z,9.80
2018-05-03T08:24:13.282Z,10.60
2018-05-03T08:25:13.315Z,9.40
2018-05-03T08:26:13.346Z,10.50
2018-05-03T08:27:13.382Z,10.60
2018-05-03T08:28:13.417Z,10.90
2018-05-03T08:29:13.453Z,10.70
2018-05-03T08:30:13.488Z,10.60
2018-05-03T08:31:13.524Z,10.10
2018-05-03T08:32:13.560Z,10.60
2018-05-03T08:33:13.593Z,11.20
2018-05-03T08:34:13.630Z,11.20
2018-05-03T08:35:13.666Z,12.20
2018-05-03T08:36:13.702Z,11.70
2018-05-03T08:37:13.736Z,11.00
2018-05-03T08:38:13.775Z,12.20
2018-05-03T08:39:13.809Z,10.70
2018-05-03T08:40:13.844Z,11.30
2018-05-03T08:41:13.878Z,11.10
2018-05-03T08:42:13.916Z,11.20
2018-05-03T08:43:13.952Z,13.90
2018-05-03T08:44:13.987Z,12.90
2018-05-03T08:45:14.023Z,11.70
2018-05-03T08:46:14.060Z,11.80
2018-05-03T08:47:14.095Z,11.50
2018-05-03T08:48:14.131Z,11.20
2018-05-03T08:49:14.167Z,12.20
2018-05-03T08:50:14.204Z,11.60
2018-05-03T08:51:14.240Z,11.20
2018-05-03T08:52:14.278Z,11.00
2018-05-03T08:53:14.312Z,10.90
2018-05-03T08:54:14.347Z,10.90
2018-05-03T08:55:14.385Z,11.10
2018-05-03T08:56:14.425Z,11.10
2018-05-03T08:57:14.455Z,11.40
2018-05-03T08:58:14.493Z,10.50
2018-05-03T08:59:14.529Z,11.40
2018-05-03T09:00:14.566Z,10.70
2018-05-03T09:01:14.618Z,10.40
2018-05-03T09:02:14.639Z,10.70
2018-05-03T09:03:14.679Z,10.80
2018-05-03T09:04:14.711Z,11.10
2018-05-03T09:05:14.747Z,11.10
2018-05-03T09:06:14.785Z,11.30
2018-05-03T09:07:14.828Z,11.50
2018-05-03T09:08:14.860Z,10.70
2018-05-03T09:09:14.894Z,10.40
2018-05-03T09:10:14.929Z,10.80
2018-05-03T09:11:14.970Z,10.60
2018-05-03T09:12:15.005Z,11.00
2018-05-03T09:13:15.044Z,11.20
2018-05-03T09:14:15.076Z,10.20
2018-05-03T09:15:15.116Z,10.40
2018-05-03T09:16:15.150Z,10.30
2018-05-03T09:17:15.189Z,10.20
2018-05-03T09:18:15.221Z,10.00
2018-05-03T09:19:15.259Z,10.40
2018-05-03T09:20:15.295Z,10.80
2018-05-03T09:21:15.330Z,10.50
2018-05-03T09:22:15.368Z,10.70
2018-05-03T09:23:15.404Z,10.50
2018-05-03T09:24:15.441Z,10.70
2018-05-03T09:25:15.476Z,10.00
2018-05-03T09:26:15.519Z,9.80
2018-05-03T09:27:15.550Z,9.90
2018-05-03T09:28:15.587Z,10.30
2018-05-03T09:29:15.709Z,9.70
2018-05-03T09:30:15.658Z,10.30
2018-05-03T09:31:15.696Z,10.30
2018-05-03T09:32:15.732Z,9.70
2018-05-03T09:33:15.767Z,10.20
2018-05-03T09:34:15.802Z,10.50
2018-05-03T09:35:15.840Z,10.30
2018-05-03T09:36:15.879Z,10.10
2018-05-03T09:37:15.911Z,9.70
2018-05-03T09:38:15.947Z,10.20
2018-05-03T09:39:16.155Z,9.80
2018-05-03T09:40:16.020Z,10.30
2018-05-03T09:41:16.056Z,10.00
2018-05-03T09:42:16.090Z,10.30
2018-05-03T09:43:16.127Z,10.40
2018-05-03T09:44:16.163Z,10.30
2018-05-03T09:45:16.205Z,10.30
2018-05-03T09:46:16.236Z,10.00
2018-05-03T09:47:16.269Z,9.80
2018-05-03T09:48:16.310Z,10.40
2018-05-03T09:49:16.341Z,9.60
2018-05-03T09:50:16.379Z,10.10
2018-05-03T09:51:16.414Z,9.90
2018-05-03T09:52:16.452Z,10.10
2018-05-03T09:53:16.486Z,9.60
2018-05-03T09:54:16.524Z,9.50
2018-05-03T09:55:16.561Z,9.50
2018-05-03T09:56:16.593Z,10.50
2018-05-03T09:57:16.630Z,9.90
2018-05-03T09:58:16.665Z,9.40
2018-05-03T09:59:16.750Z,9.50
2018-05-03T10:00:16.742Z,10.60
2018-05-03T10:01:16.773Z,10.60
2018-05-03T10:02:16.810Z,9.30
2018-05-03T10:03:16.847Z,10.00
2018-05-03T10:04:16.884Z,9.10
2018-05-03T10:05:16.917Z,9.80
2018-05-03T10:06:16.955Z,9.90
2018-05-03T10:07:16.998Z,9.70
2018-05-03T10:08:17.028Z,9.90
2018-05-03T10:09:17.064Z,9.20
2018-05-03T10:10:17.100Z,9.40
2018-05-03T10:11:17.136Z,10.00
2018-05-03T10:12:17.172Z,9.80
2018-05-03T10:13:17.275Z,9.40
2018-05-03T10:14:17.245Z,10.30
2018-05-03T10:15:17.282Z,10.00
2018-05-03T10:16:17.317Z,9.50
2018-05-03T10:17:17.353Z,10.00
2018-05-03T10:18:17.396Z,10.20
2018-05-03T10:19:17.426Z,10.30
2018-05-03T10:20:17.462Z,9.50
2018-05-03T10:21:17.498Z,10.60
2018-05-03T10:22:17.534Z,10.10
2018-05-03T10:23:17.571Z,10.20
2018-05-03T10:24:17.606Z,10.10
2018-05-03T10:25:17.642Z,9.80
2018-05-03T10:26:17.680Z,10.00
2018-05-03T10:27:17.716Z,10.50
2018-05-03T10:28:17.753Z,10.30
2018-05-03T10:29:17.788Z,10.30
2018-05-03T10:30:17.859Z,10.00
2018-05-03T10:31:17.861Z,10.80
2018-05-03T10:32:17.899Z,10.10
2018-05-03T10:33:17.933Z,9.90
2018-05-03T10:34:17.970Z,9.20
2018-05-03T10:35:18.007Z,9.90
2018-05-03T10:36:18.053Z,10.00
2018-05-03T10:37:18.078Z,10.00
2018-05-03T10:38:18.115Z,10.70
2018-05-03T10:39:18.150Z,9.70
2018-05-03T10:40:18.187Z,10.30
2018-05-03T10:41:18.223Z,10.40
2018-05-03T10:42:18.318Z,9.50
2018-05-03T10:43:18.298Z,9.70
2018-05-03T10:44:18.333Z,9.60
2018-05-03T10:45:18.373Z,9.80
2018-05-03T10:46:18.406Z,8.90
2018-05-03T10:47:18.443Z,10.20
2018-05-03T10:48:18.479Z,10.60
2018-05-03T10:49:18.517Z,10.00
2018-05-03T10:50:18.555Z,10.70
2018-05-03T10:51:18.592Z,10.50
2018-05-03T10:52:18.628Z,10.40
2018-05-03T10:53:18.666Z,9.90
2018-05-03T10:54:18.704Z,10.20
2018-05-03T10:55:18.742Z,9.30
2018-05-03T10:56:18.780Z,9.80
2018-05-03T10:57:18.816Z,9.50
2018-05-03T10:58:18.856Z,8.80
2018-05-03T10:59:18.894Z,9.10
2018-05-03T11:00:18.932Z,8.90
2018-05-03T11:01:18.972Z,8.90
2018-05-03T11:02:19.008Z,9.00
2018-05-03T11:03:19.049Z,9.20
2018-05-03T11:04:19.091Z,9.20
2018-05-03T11:05:19.149Z,9.10
2018-05-03T11:06:19.165Z,8.80
2018-05-03T11:07:19.205Z,8.60
2018-05-03T11:08:19.246Z,8.60
2018-05-03T11:09:19.290Z,9.00
2018-05-03T11:10:19.321Z,9.00
2018-05-03T11:11:19.359Z,8.80
2018-05-03T11:12:19.399Z,8.30
2018-05-03T11:13:19.438Z,8.10
2018-05-03T11:14:19.476Z,8.40
2018-05-03T11:15:19.521Z,7.90
2018-05-03T11:16:19.556Z,8.50
2018-05-03T11:17:19.594Z,7.50
2018-05-03T11:18:19.632Z,7.40
2018-05-03T11:19:19.672Z,7.60
2018-05-03T11:20:19.711Z,7.70
2018-05-03T11:21:19.749Z,7.50
2018-05-03T11:22:19.789Z,7.30
2018-05-03T11:23:19.829Z,6.90
2018-05-03T11:24:19.868Z,6.90
2018-05-03T11:25:19.906Z,7.00
2018-05-03T11:26:19.947Z,7.00
2018-05-03T11:27:19.987Z,7.00
2018-05-03T11:28:20.027Z,7.30
2018-05-03T11:29:20.065Z,6.90
2018-05-03T11:30:20.104Z,7.10
2018-05-03T11:31:20.146Z,6.30
2018-05-03T11:32:20.187Z,7.20
2018-05-03T11:33:20.225Z,6.90
2018-05-03T11:34:20.264Z,6.70
2018-05-03T11:35:20.305Z,7.10
2018-05-03T11:36:20.347Z,7.10
2018-05-03T11:37:20.386Z,7.20
2018-05-03T11:38:20.427Z,6.90
2018-05-03T11:39:20.467Z,6.90
2018-05-03T11:40:20.508Z,7.00
2018-05-03T11:41:20.549Z,6.70
2018-05-03T11:42:20.588Z,6.70
2018-05-03T11:43:20.631Z,6.40
2018-05-03T11:44:20.670Z,6.40
2018-05-03T11:45:20.711Z,7.30
2018-05-03T11:46:20.751Z,6.30
2018-05-03T11:47:20.795Z,6.80
2018-05-03T11:48:20.834Z,7.50
2018-05-03T11:49:20.875Z,7.40
2018-05-03T11:50:20.916Z,7.60
2018-05-03T11:51:20.958Z,6.90
2018-05-03T11:52:21.000Z,7.20
2018-05-03T11:53:21.039Z,6.90
2018-05-03T11:54:21.080Z,7.30
2018-05-03T11:55:21.125Z,7.90
2018-05-03T11:56:21.161Z,7.30
2018-05-03T11:57:21.209Z,7.40
2018-05-03T11:58:21.241Z,7.30
2018-05-03T11:59:21.294Z,7.30
2018-05-03T12:00:21.322Z,6.80
2018-05-03T12:01:21.368Z,7.10
2018-05-03T12:02:21.419Z,7.20
2018-05-03T12:03:21.443Z,7.30
2018-05-03T12:04:21.483Z,6.30
2018-05-03T12:05:21.525Z,6.50
2018-05-03T12:06:21.564Z,7.80
2018-05-03T12:07:21.605Z,7.10
2018-05-03T12:08:21.644Z,7.30
2018-05-03T12:09:21.683Z,6.70
2018-05-03T12:10:21.724Z,6.70
2018-05-03T12:11:21.765Z,6.80
2018-05-03T12:12:21.804Z,6.10
2018-05-03T12:13:21.844Z,7.70
2018-05-03T12:14:21.885Z,6.90
2018-05-03T12:15:21.923Z,7.00
2018-05-03T12:16:21.964Z,7.20
2018-05-03T12:17:22.004Z,6.80
2018-05-03T12:18:22.045Z,6.70
2018-05-03T12:19:22.084Z,7.00
2018-05-03T12:20:22.123Z,6.70
2018-05-03T12:21:22.161Z,7.60
2018-05-03T12:22:22.203Z,6.60
2018-05-03T12:23:22.240Z,6.70
2018-05-03T12:24:22.336Z,6.30
2018-05-03T12:25:22.320Z,6.30
2018-05-03T12:26:22.361Z,6.60
2018-05-03T12:27:22.400Z,7.10
2018-05-03T12:28:22.440Z,7.00
2018-05-03T12:29:22.479Z,7.00
2018-05-03T12:30:22.520Z,6.90
2018-05-03T12:31:22.559Z,7.20
2018-05-03T12:32:22.599Z,7.70
2018-05-03T12:33:22.637Z,6.80
2018-05-03T12:34:22.677Z,7.40
2018-05-03T12:35:22.719Z,7.30
2018-05-03T12:36:22.757Z,7.20
2018-05-03T12:37:22.796Z,7.00
2018-05-03T12:38:22.836Z,7.50
2018-05-03T12:39:22.874Z,7.20
2018-05-03T12:40:22.916Z,8.00
2018-05-03T12:41:22.960Z,6.50
2018-05-03T12:42:22.994Z,7.00
2018-05-03T12:43:23.034Z,7.20
2018-05-03T12:44:23.073Z,6.40
2018-05-03T12:45:23.111Z,6.90
2018-05-03T12:46:23.151Z,6.80
2018-05-03T12:47:23.190Z,7.20
2018-05-03T12:48:23.229Z,7.20
2018-05-03T12:49:23.268Z,8.00
2018-05-03T12:50:23.306Z,7.60
2018-05-03T12:51:23.345Z,7.50
2018-05-03T12:52:23.391Z,7.70
2018-05-03T12:53:23.423Z,8.00
2018-05-03T12:54:23.467Z,8.00
2018-05-03T12:55:23.502Z,7.40
2018-05-03T12:56:23.541Z,7.50
2018-05-03T12:57:23.579Z,7.30
2018-05-03T12:58:23.618Z,7.60
2018-05-03T12:59:23.658Z,8.40
2018-05-03T13:00:23.696Z,8.00
2018-05-03T13:01:23.734Z,7.40
2018-05-03T13:02:23.774Z,7.70
2018-05-03T13:03:23.813Z,7.70
2018-05-03T13:04:23.851Z,7.90
2018-05-03T13:05:23.891Z,7.50
2018-05-03T13:06:23.928Z,7.40
2018-05-03T13:07:23.969Z,7.70
2018-05-03T13:08:24.008Z,8.20
2018-05-03T13:09:24.049Z,7.40
2018-05-03T13:10:24.086Z,7.40
2018-05-03T13:11:24.126Z,7.10
2018-05-03T13:12:24.165Z,7.70
2018-05-03T13:13:24.204Z,7.50
2018-05-03T13:14:24.245Z,8.10